Time;durP1;ratioP1;P1;durP2;ratioP2;P2;SDS_P1;SDS_P2;PMS_P1;PMS_P2;Temp;Humidity;BMP_temperature;BMP_pressure;BME280_temperature;BME280_humidity;BME280_pressure;Samples;Min_cycle;Max_cycle;Signal;HPM_P1;HPM_P2
2022/02/19 00:00:58;;;;;;;7.03;1.20;;;;;;;;;;4996971;28;20088;-73
2022/02/19 00:03:24;;;;;;;4.70;1.05;;;;;;;;;;4993215;28;20026;-73
2022/02/19 00:05:50;;;;;;;4.65;1.48;;;;;;;;;;4993617;28;20097;-73
2022/02/19 00:08:16;;;;;;;5.55;0.95;;;;;;;;;;4993324;28;20050;-73
2022/02/19 00:10:43;;;;;;;2.55;0.98;;;;;;;;;;4994002;28;20026;-73
2022/02/19 00:13:09;;;;;;;3.38;1.10;;;;;;;;;;4993500;28;20022;-73
2022/02/19 00:15:35;;;;;;;9.15;1.40;;;;;;;;;;4994638;28;20030;-73
2022/02/19 00:18:01;;;;;;;6.13;1.00;;;;;;;;;;4997959;28;20058;-73
2022/02/19 00:20:27;;;;;;;6.75;0.93;;;;;;;;;;4995193;28;20401;-73
2022/02/19 00:22:54;;;;;;;4.18;0.93;;;;;;;;;;4994721;28;20033;-73
2022/02/19 00:25:20;;;;;;;4.20;1.17;;;;;;;;;;4998143;28;20550;-73
2022/02/19 00:27:47;;;;;;;7.97;1.77;;;;;;;;;;4997566;28;20037;-73
2022/02/19 00:30:13;;;;;;;7.82;1.23;;;;;;;;;;4997417;28;20022;-73
2022/02/19 00:32:39;;;;;;;11.57;1.75;;;;;;;;;;4994643;28;20042;-71
2022/02/19 00:35:05;;;;;;;4.63;0.70;;;;;;;;;;4992301;28;20046;-73
2022/02/19 00:37:31;;;;;;;8.10;1.02;;;;;;;;;;4993186;28;20034;-73
2022/02/19 00:39:57;;;;;;;5.50;1.20;;;;;;;;;;4992734;28;20030;-73
2022/02/19 00:42:24;;;;;;;3.80;1.35;;;;;;;;;;4992684;28;20026;-73
2022/02/19 00:44:50;;;;;;;4.75;1.40;;;;;;;;;;4991988;28;20030;-73
2022/02/19 00:47:16;;;;;;;6.05;1.23;;;;;;;;;;4992677;28;20392;-73
2022/02/19 00:49:42;;;;;;;8.23;1.17;;;;;;;;;;4995628;28;20491;-73
2022/02/19 00:52:08;;;;;;;3.80;0.88;;;;;;;;;;4993101;28;20044;-73
2022/02/19 00:54:34;;;;;;;3.25;1.00;;;;;;;;;;5013112;28;20524;-73
2022/02/19 00:57:00;;;;;;;6.38;1.33;;;;;;;;;;4999145;28;20065;-73
2022/02/19 00:59:26;;;;;;;5.18;1.05;;;;;;;;;;5013975;28;20061;-73
2022/02/19 01:01:52;;;;;;;5.15;1.58;;;;;;;;;;5013879;28;20038;-73
2022/02/19 01:04:18;;;;;;;5.15;1.10;;;;;;;;;;5001237;28;20022;-72
2022/02/19 01:06:44;;;;;;;7.68;1.20;;;;;;;;;;5013795;28;20800;-73
2022/02/19 01:09:11;;;;;;;8.50;1.27;;;;;;;;;;4999196;28;20415;-73
2022/02/19 01:11:39;;;;;;;11.52;1.98;;;;;;;;;;4998887;28;20033;-73
2022/02/19 01:14:06;;;;;;;4.40;1.17;;;;;;;;;;4998281;28;20080;-73
2022/02/19 01:16:32;;;;;;;4.63;0.93;;;;;;;;;;4998912;28;20022;-70
2022/02/19 01:18:58;;;;;;;5.93;1.30;;;;;;;;;;5013987;28;20480;-72
2022/02/19 01:21:24;;;;;;;9.00;1.50;;;;;;;;;;5001706;28;20126;-72
2022/02/19 01:23:49;;;;;;;7.60;1.33;;;;;;;;;;4998007;28;20049;-72
2022/02/19 01:26:16;;;;;;;3.50;0.90;;;;;;;;;;4998823;28;20030;-73
2022/02/19 01:28:41;;;;;;;5.53;1.48;;;;;;;;;;4999175;28;20081;-73
2022/02/19 01:31:07;;;;;;;6.22;1.42;;;;;;;;;;4998934;28;20027;-73
2022/02/19 01:33:34;;;;;;;7.93;2.65;;;;;;;;;;5013284;28;20045;-73
2022/02/19 01:35:59;;;;;;;9.43;2.80;;;;;;;;;;4998967;28;20026;-73
2022/02/19 01:38:27;;;;;;;4.35;1.30;;;;;;;;;;4998787;28;20538;-73
2022/02/19 01:40:53;;;;;;;6.28;1.65;;;;;;;;;;4998823;28;20022;-73
2022/02/19 01:43:19;;;;;;;6.63;1.42;;;;;;;;;;4998029;28;20034;-73
2022/02/19 01:45:47;;;;;;;4.38;1.13;;;;;;;;;;4998715;28;20041;-72
2022/02/19 01:48:13;;;;;;;5.90;1.00;;;;;;;;;;4998724;28;20153;-73
2022/02/19 01:50:39;;;;;;;6.70;1.10;;;;;;;;;;4998543;28;20027;-73
2022/02/19 01:53:05;;;;;;;4.05;1.13;;;;;;;;;;4997661;28;20427;-73
2022/02/19 01:55:32;;;;;;;6.10;1.05;;;;;;;;;;5014013;28;20036;-72
2022/02/19 01:57:58;;;;;;;9.35;1.75;;;;;;;;;;4998608;28;20484;-73
2022/02/19 02:00:24;;;;;;;3.60;0.75;;;;;;;;;;4998499;28;20061;-73
2022/02/19 02:02:52;;;;;;;6.25;1.38;;;;;;;;;;4997717;28;20073;-73
2022/02/19 02:05:18;;;;;;;6.28;1.30;;;;;;;;;;4995882;28;20018;-73
2022/02/19 02:07:44;;;;;;;6.90;1.65;;;;;;;;;;4995287;28;20030;-73
2022/02/19 02:10:10;;;;;;;5.82;1.48;;;;;;;;;;4995502;28;20018;-73
2022/02/19 02:12:36;;;;;;;7.32;2.42;;;;;;;;;;5010225;28;20491;-73
2022/02/19 02:15:02;;;;;;;6.03;1.25;;;;;;;;;;5009601;28;20396;-73
2022/02/19 02:17:28;;;;;;;10.88;2.13;;;;;;;;;;5010238;28;20030;-74
2022/02/19 02:19:54;;;;;;;5.07;1.00;;;;;;;;;;4995129;28;20038;-73
2022/02/19 02:22:20;;;;;;;6.85;2.38;;;;;;;;;;4994937;28;20026;-73
2022/02/19 02:24:47;;;;;;;6.53;1.00;;;;;;;;;;5009392;28;20492;-73
2022/02/19 02:27:13;;;;;;;5.22;0.90;;;;;;;;;;4994947;28;20029;-73
2022/02/19 02:29:46;;;;;;;4.47;1.30;;;;;;;;;;4994983;28;20026;-73
2022/02/19 02:32:12;;;;;;;5.25;1.45;;;;;;;;;;4994908;28;20022;-73
2022/02/19 02:34:48;;;;;;;5.40;1.30;;;;;;;;;;4994229;28;20014;-73
2022/02/19 02:37:14;;;;;;;3.88;1.08;;;;;;;;;;4994940;28;20055;-73
2022/02/19 02:39:41;;;;;;;8.75;2.38;;;;;;;;;;5009903;28;20385;-73
2022/02/19 02:42:07;;;;;;;6.60;1.17;;;;;;;;;;5009897;28;20026;-73
2022/02/19 02:44:33;;;;;;;6.13;1.15;;;;;;;;;;5008963;28;20045;-73
2022/02/19 02:46:59;;;;;;;9.55;1.40;;;;;;;;;;5009583;28;20476;-73
2022/02/19 02:49:24;;;;;;;7.45;1.83;;;;;;;;;;4994611;28;20030;-73
2022/02/19 02:51:51;;;;;;;8.15;1.88;;;;;;;;;;4997700;28;20026;-73
2022/02/19 02:54:16;;;;;;;5.25;1.20;;;;;;;;;;5039367;23;20412;-72
2022/02/19 02:56:42;;;;;;;7.00;1.48;;;;;;;;;;5013881;28;20025;-75
2022/02/19 02:59:08;;;;;;;6.43;1.55;;;;;;;;;;5013725;28;20109;-70
2022/02/19 03:01:34;;;;;;;5.35;1.40;;;;;;;;;;5013856;28;20646;-70
2022/02/19 03:04:00;;;;;;;8.00;1.42;;;;;;;;;;5012856;28;20053;-70
2022/02/19 03:06:26;;;;;;;6.32;1.30;;;;;;;;;;5013407;28;20088;-70
2022/02/19 03:08:52;;;;;;;6.40;1.60;;;;;;;;;;5013558;28;20036;-72
2022/02/19 03:11:18;;;;;;;7.78;2.15;;;;;;;;;;5013712;28;20022;-71
2022/02/19 03:13:44;;;;;;;9.57;1.65;;;;;;;;;;5012614;28;20029;-72
2022/02/19 03:16:10;;;;;;;4.72;1.40;;;;;;;;;;5011798;28;20448;-70
2022/02/19 03:18:36;;;;;;;6.45;1.10;;;;;;;;;;5013487;28;20036;-71
2022/02/19 03:21:02;;;;;;;6.82;1.10;;;;;;;;;;5013833;28;20073;-71
2022/02/19 03:23:28;;;;;;;4.55;0.80;;;;;;;;;;5012767;28;20028;-72
2022/02/19 03:25:54;;;;;;;5.18;1.35;;;;;;;;;;4995074;28;20463;-72
2022/02/19 03:28:20;;;;;;;10.10;1.85;;;;;;;;;;4993697;28;20030;-72
2022/02/19 03:30:46;;;;;;;10.32;2.53;;;;;;;;;;4993922;28;20033;-72
2022/02/19 03:33:12;;;;;;;6.35;1.60;;;;;;;;;;4993070;28;20030;-72
2022/02/19 03:35:38;;;;;;;9.10;1.77;;;;;;;;;;4993653;28;20033;-71
2022/02/19 03:38:04;;;;;;;4.72;1.00;;;;;;;;;;4994033;28;20037;-71
2022/02/19 03:40:30;;;;;;;11.15;1.92;;;;;;;;;;4993567;28;20026;-73
2022/02/19 03:42:56;;;;;;;4.60;1.23;;;;;;;;;;4993697;28;20030;-73
2022/02/19 03:45:22;;;;;;;6.13;1.35;;;;;;;;;;4993791;28;20033;-73
2022/02/19 03:47:48;;;;;;;10.38;2.00;;;;;;;;;;5009012;28;20464;-74
2022/02/19 03:50:17;;;;;;;8.57;1.80;;;;;;;;;;4994104;28;20145;-73
2022/02/19 03:52:43;;;;;;;8.05;2.28;;;;;;;;;;4993603;28;20023;-72
2022/02/19 03:55:09;;;;;;;7.63;1.33;;;;;;;;;;5009815;28;20034;-72
2022/02/19 03:57:35;;;;;;;5.88;1.23;;;;;;;;;;4996263;28;20033;-72
2022/02/19 04:00:01;;;;;;;8.38;1.23;;;;;;;;;;4994447;28;20101;-72
2022/02/19 04:02:27;;;;;;;6.10;1.30;;;;;;;;;;5008941;28;20073;-72
2022/02/19 04:04:53;;;;;;;6.60;1.10;;;;;;;;;;4993118;28;20022;-72
2022/02/19 04:07:19;;;;;;;3.33;0.90;;;;;;;;;;4993660;28;20026;-71
2022/02/19 04:09:45;;;;;;;3.13;1.20;;;;;;;;;;4993959;28;20552;-72
2022/02/19 04:12:11;;;;;;;5.40;1.92;;;;;;;;;;4993204;28;20047;-71
2022/02/19 04:14:37;;;;;;;7.60;1.55;;;;;;;;;;4992847;28;20026;-72
2022/02/19 04:17:03;;;;;;;6.18;1.05;;;;;;;;;;5008098;28;20073;-73
2022/02/19 04:19:29;;;;;;;9.23;2.05;;;;;;;;;;4993035;28;20034;-72
2022/02/19 04:21:55;;;;;;;6.68;1.20;;;;;;;;;;4992907;28;20022;-71
2022/02/19 04:24:21;;;;;;;7.28;1.30;;;;;;;;;;5007309;28;20480;-73
2022/02/19 04:26:47;;;;;;;5.88;1.25;;;;;;;;;;4992711;28;20034;-73
2022/02/19 04:29:13;;;;;;;7.07;1.20;;;;;;;;;;4992474;28;20022;-71
2022/02/19 04:31:40;;;;;;;7.68;1.15;;;;;;;;;;4993117;28;20230;-71
2022/02/19 04:34:06;;;;;;;10.15;1.60;;;;;;;;;;4992036;28;20073;-71
2022/02/19 04:36:32;;;;;;;5.53;1.23;;;;;;;;;;4992802;28;20505;-72
2022/02/19 04:38:58;;;;;;;7.03;1.05;;;;;;;;;;4992614;28;20117;-72
2022/02/19 04:41:24;;;;;;;5.30;1.30;;;;;;;;;;4992988;28;20045;-72
2022/02/19 04:43:50;;;;;;;3.38;1.27;;;;;;;;;;4992209;28;20030;-71
2022/02/19 04:46:16;;;;;;;5.45;1.10;;;;;;;;;;4992566;28;20396;-74
2022/02/19 04:48:42;;;;;;;6.50;1.55;;;;;;;;;;5007863;28;20555;-75
2022/02/19 04:51:08;;;;;;;3.92;1.13;;;;;;;;;;4992718;28;20531;-72
2022/02/19 04:53:34;;;;;;;6.78;1.10;;;;;;;;;;4992288;28;20532;-72
2022/02/19 04:55:59;;;;;;;6.22;1.05;;;;;;;;;;5007888;28;20289;-72
2022/02/19 04:58:25;;;;;;;4.10;0.90;;;;;;;;;;4991245;28;20033;-73
2022/02/19 05:00:51;;;;;;;8.85;1.30;;;;;;;;;;4991485;28;20018;-73
2022/02/19 05:03:17;;;;;;;5.82;1.13;;;;;;;;;;4990754;28;20041;-72
2022/02/19 05:05:43;;;;;;;7.28;1.17;;;;;;;;;;4991759;28;20059;-72
2022/02/19 05:08:09;;;;;;;4.53;0.88;;;;;;;;;;4991599;28;20095;-72
2022/02/19 05:10:35;;;;;;;8.98;2.65;;;;;;;;;;4991374;28;20100;-73
2022/02/19 05:13:01;;;;;;;4.13;1.08;;;;;;;;;;4990998;28;20019;-70
2022/02/19 05:15:27;;;;;;;6.88;1.20;;;;;;;;;;4992197;28;20034;-72
2022/02/19 05:17:53;;;;;;;5.18;0.90;;;;;;;;;;4992636;28;20062;-72
2022/02/19 05:20:23;;;;;;;3.13;0.75;;;;;;;;;;4992722;28;20374;-73
2022/02/19 05:22:50;;;;;;;5.57;1.40;;;;;;;;;;4991705;28;20173;-72
2022/02/19 05:25:16;;;;;;;5.65;0.98;;;;;;;;;;4992861;28;20511;-72
2022/02/19 05:27:42;;;;;;;14.18;1.95;;;;;;;;;;5012015;28;20018;-72
2022/02/19 05:30:09;;;;;;;7.70;1.55;;;;;;;;;;5012076;28;20113;-71
2022/02/19 05:32:35;;;;;;;4.65;1.30;;;;;;;;;;5012029;28;20057;-71
2022/02/19 05:35:01;;;;;;;5.30;1.23;;;;;;;;;;5011325;28;20076;-71
2022/02/19 05:37:30;;;;;;;7.28;1.27;;;;;;;;;;5010266;28;20030;-71
2022/02/19 05:39:57;;;;;;;7.15;1.65;;;;;;;;;;5014035;28;20495;-72
2022/02/19 05:42:23;;;;;;;4.88;1.10;;;;;;;;;;5014028;28;20022;-72
2022/02/19 05:44:49;;;;;;;5.32;1.45;;;;;;;;;;5014794;28;20160;-71
2022/02/19 05:47:17;;;;;;;9.25;2.05;;;;;;;;;;5014203;28;20117;-73
2022/02/19 05:49:43;;;;;;;5.20;1.70;;;;;;;;;;5015348;28;20022;-73
2022/02/19 05:52:09;;;;;;;5.65;1.60;;;;;;;;;;5015218;28;20033;-72
2022/02/19 05:54:35;;;;;;;8.63;1.95;;;;;;;;;;5014367;28;20045;-73
2022/02/19 05:57:01;;;;;;;9.48;2.15;;;;;;;;;;5015553;28;20455;-72
2022/02/19 05:59:27;;;;;;;6.97;1.58;;;;;;;;;;5015275;28;20025;-72
2022/02/19 06:01:53;;;;;;;7.03;1.10;;;;;;;;;;5015364;28;20480;-71
2022/02/19 06:04:19;;;;;;;4.28;0.77;;;;;;;;;;5014300;28;20036;-71
2022/02/19 06:06:45;;;;;;;3.95;0.98;;;;;;;;;;5007938;28;20504;-73
2022/02/19 06:09:11;;;;;;;6.35;1.73;;;;;;;;;;4995442;28;20101;-71
2022/02/19 06:11:40;;;;;;;4.45;1.15;;;;;;;;;;4995462;28;20018;-71
2022/02/19 06:14:06;;;;;;;4.35;0.90;;;;;;;;;;5009862;28;20089;-72
2022/02/19 06:16:32;;;;;;;4.35;0.85;;;;;;;;;;4995667;28;20034;-72
2022/02/19 06:18:57;;;;;;;3.97;1.10;;;;;;;;;;4995581;28;20049;-72
2022/02/19 06:21:23;;;;;;;2.88;0.60;;;;;;;;;;5010227;28;20044;-71
2022/02/19 06:23:49;;;;;;;8.95;1.15;;;;;;;;;;4994211;28;20034;-71
2022/02/19 06:26:15;;;;;;;6.00;1.38;;;;;;;;;;4998128;28;20030;-71
2022/02/19 06:28:41;;;;;;;3.60;0.90;;;;;;;;;;4995115;28;20026;-72
2022/02/19 06:31:07;;;;;;;5.55;1.15;;;;;;;;;;4995004;28;20026;-69
2022/02/19 06:33:33;;;;;;;6.45;0.85;;;;;;;;;;4993940;28;20022;-72
2022/02/19 06:35:59;;;;;;;6.97;1.50;;;;;;;;;;5002673;28;20068;-71
2022/02/19 06:38:25;;;;;;;4.50;0.80;;;;;;;;;;5004473;28;20034;-71
2022/02/19 06:40:51;;;;;;;4.88;1.00;;;;;;;;;;5003570;28;20029;-73
2022/02/19 06:43:17;;;;;;;6.15;1.80;;;;;;;;;;5008955;28;20385;-74
2022/02/19 06:45:43;;;;;;;7.30;2.92;;;;;;;;;;4994499;28;20038;-74
2022/02/19 06:48:09;;;;;;;6.20;1.73;;;;;;;;;;4994499;28;20026;-73
2022/02/19 06:50:35;;;;;;;3.30;1.05;;;;;;;;;;4993848;28;20222;-71
2022/02/19 06:53:01;;;;;;;2.05;0.80;;;;;;;;;;4993583;28;20702;-70
2022/02/19 06:55:27;;;;;;;4.28;1.23;;;;;;;;;;4994566;28;20038;-71
2022/02/19 06:57:53;;;;;;;7.28;0.90;;;;;;;;;;4994583;28;20094;-70
2022/02/19 07:00:19;;;;;;;4.28;1.25;;;;;;;;;;4994340;28;20037;-71
2022/02/19 07:02:46;;;;;;;4.05;0.70;;;;;;;;;;4993724;28;20050;-69
2022/02/19 07:05:12;;;;;;;3.92;1.00;;;;;;;;;;4994192;28;20076;-73
2022/02/19 07:07:38;;;;;;;1.83;0.80;;;;;;;;;;4994593;28;20433;-73
2022/02/19 07:10:06;;;;;;;3.22;0.68;;;;;;;;;;4994293;28;20042;-71
2022/02/19 07:12:32;;;;;;;2.55;0.70;;;;;;;;;;4993853;28;20022;-72
2022/02/19 07:14:58;;;;;;;3.33;0.82;;;;;;;;;;5003249;28;20034;-74
2022/02/19 07:17:24;;;;;;;1.17;0.50;;;;;;;;;;5012490;28;20113;-70
2022/02/19 07:19:50;;;;;;;4.00;0.95;;;;;;;;;;5012791;28;20030;-71
2022/02/19 07:22:16;;;;;;;4.68;0.77;;;;;;;;;;5012861;28;20026;-73
2022/02/19 07:24:42;;;;;;;3.30;0.60;;;;;;;;;;5012170;28;20381;-72
2022/02/19 07:27:11;;;;;;;6.78;1.00;;;;;;;;;;5013205;28;20157;-72
2022/02/19 07:29:37;;;;;;;4.32;1.23;;;;;;;;;;5013314;28;20091;-70
2022/02/19 07:32:03;;;;;;;2.22;1.23;;;;;;;;;;5008298;28;20108;-71
2022/02/19 07:34:29;;;;;;;3.30;0.75;;;;;;;;;;5001601;28;20031;-71
2022/02/19 07:36:55;;;;;;;4.22;1.08;;;;;;;;;;4992928;28;20022;-71
2022/02/19 07:39:21;;;;;;;10.38;0.80;;;;;;;;;;4992852;28;20023;-71
2022/02/19 07:41:50;;;;;;;3.88;1.08;;;;;;;;;;4993286;28;20172;-72
2022/02/19 07:44:16;;;;;;;2.22;0.63;;;;;;;;;;4992831;28;20026;-72
2022/02/19 07:46:42;;;;;;;3.33;0.98;;;;;;;;;;4993308;28;20113;-72
2022/02/19 08:00:08;;;;;;;4.00;0.77;;;;;;;;;;4993765;28;20045;-73
2022/02/19 08:02:35;;;;;;;5.03;0.75;;;;;;;;;;4993195;28;20455;-72
2022/02/19 08:05:01;;;;;;;8.02;1.52;;;;;;;;;;4992671;28;20073;-72
2022/02/19 08:07:27;;;;;;;4.22;1.40;;;;;;;;;;4993395;28;20019;-71
2022/02/19 08:09:53;;;;;;;4.68;0.93;;;;;;;;;;4993702;28;20085;-72
2022/02/19 08:12:19;;;;;;;1.38;0.80;;;;;;;;;;4993391;28;20026;-72
2022/02/19 08:14:45;;;;;;;6.03;1.02;;;;;;;;;;4992206;28;20026;-72
2022/02/19 08:17:11;;;;;;;5.05;1.25;;;;;;;;;;4993147;28;20037;-71
2022/02/19 08:19:36;;;;;;;3.20;0.88;;;;;;;;;;4993202;28;20034;-72
2022/02/19 08:22:02;;;;;;;6.50;0.93;;;;;;;;;;4992765;28;20041;-72
2022/02/19 08:24:28;;;;;;;1.67;0.63;;;;;;;;;;4992433;28;20030;-72
2022/02/19 08:26:54;;;;;;;3.05;0.60;;;;;;;;;;5007765;28;20026;-72
2022/02/19 08:29:20;;;;;;;4.10;0.80;;;;;;;;;;4992800;28;20526;-72
2022/02/19 08:31:46;;;;;;;4.55;1.05;;;;;;;;;;4992815;28;20110;-72
2022/02/19 08:34:12;;;;;;;3.78;1.23;;;;;;;;;;4992119;28;20109;-74
2022/02/19 08:36:38;;;;;;;4.28;0.77;;;;;;;;;;4992575;28;20026;-71
2022/02/19 08:39:04;;;;;;;2.50;0.95;;;;;;;;;;4993043;28;20029;-71
2022/02/19 08:41:30;;;;;;;2.78;0.80;;;;;;;;;;4993424;28;20085;-70
2022/02/19 08:43:56;;;;;;;5.88;1.10;;;;;;;;;;4992004;28;20101;-70
2022/02/19 08:46:24;;;;;;;4.82;1.13;;;;;;;;;;4992633;28;20042;-72
2022/02/19 08:48:51;;;;;;;2.38;0.73;;;;;;;;;;4992673;28;20102;-75
2022/02/19 08:51:17;;;;;;;3.72;1.00;;;;;;;;;;4992301;28;20038;-72
2022/02/19 08:53:43;;;;;;;4.70;0.85;;;;;;;;;;5010573;23;20038;-70
2022/02/19 08:56:09;;;;;;;1.85;0.40;;;;;;;;;;5012414;28;20069;-69
2022/02/19 08:58:35;;;;;;;6.45;1.25;;;;;;;;;;5012385;28;20030;-70
2022/02/19 09:01:01;;;;;;;4.28;1.10;;;;;;;;;;5012390;28;20022;-70
2022/02/19 09:03:27;;;;;;;3.80;1.10;;;;;;;;;;5011479;28;20037;-71
2022/02/19 09:05:53;;;;;;;3.38;1.10;;;;;;;;;;5011802;28;20025;-70
2022/02/19 09:08:19;;;;;;;2.67;0.82;;;;;;;;;;5011899;28;20454;-70
2022/02/19 09:10:45;;;;;;;5.13;1.00;;;;;;;;;;5011757;28;20057;-71
2022/02/19 09:13:11;;;;;;;3.88;0.57;;;;;;;;;;5010988;28;20061;-70
2022/02/19 09:15:38;;;;;;;2.25;0.77;;;;;;;;;;5015688;28;20030;-70
2022/02/19 09:18:07;;;;;;;4.15;0.65;;;;;;;;;;5015715;28;20034;-70
2022/02/19 09:20:33;;;;;;;3.33;0.80;;;;;;;;;;5015431;28;20022;-70
2022/02/19 09:22:59;;;;;;;3.20;1.05;;;;;;;;;;5014701;28;20036;-71
2022/02/19 09:25:25;;;;;;;3.35;0.82;;;;;;;;;;5015381;28;20056;-70
2022/02/19 09:27:51;;;;;;;2.70;0.85;;;;;;;;;;5015376;28;20025;-70
2022/02/19 09:30:17;;;;;;;4.78;1.45;;;;;;;;;;5014117;28;20396;-70
2022/02/19 09:32:43;;;;;;;4.32;0.88;;;;;;;;;;5015036;28;20056;-70
2022/02/19 09:35:12;;;;;;;3.20;0.60;;;;;;;;;;5001758;28;20018;-70
2022/02/19 09:37:38;;;;;;;4.72;1.15;;;;;;;;;;4995542;28;20022;-70
2022/02/19 09:40:04;;;;;;;5.75;0.80;;;;;;;;;;4995664;28;20028;-70
2022/02/19 09:42:31;;;;;;;2.60;0.80;;;;;;;;;;4995619;28;20030;-70
2022/02/19 09:44:57;;;;;;;2.83;0.90;;;;;;;;;;4994746;28;20027;-70
2022/02/19 09:47:28;;;;;;;5.07;1.20;;;;;;;;;;4995120;28;20030;-70
2022/02/19 09:49:54;;;;;;;3.33;0.70;;;;;;;;;;4995572;28;20029;-71
2022/02/19 09:52:21;;;;;;;1.48;0.60;;;;;;;;;;4995207;28;20022;-71
2022/02/19 09:54:47;;;;;;;6.55;0.88;;;;;;;;;;4994144;28;20038;-70
2022/02/19 09:57:13;;;;;;;5.82;1.10;;;;;;;;;;4995224;28;20057;-70
2022/02/19 09:59:39;;;;;;;4.47;1.13;;;;;;;;;;4998129;28;20096;-70
2022/02/19 10:02:06;;;;;;;3.70;0.75;;;;;;;;;;5014719;28;20439;-70
2022/02/19 10:04:32;;;;;;;3.00;0.95;;;;;;;;;;5013993;28;20458;-70
2022/02/19 10:07:02;;;;;;;2.08;0.70;;;;;;;;;;5013251;28;20498;-69
2022/02/19 10:09:28;;;;;;;4.65;0.70;;;;;;;;;;5014410;28;20040;-70
2022/02/19 10:11:55;;;;;;;3.00;0.82;;;;;;;;;;5014558;28;20022;-70
2022/02/19 10:14:22;;;;;;;6.45;1.23;;;;;;;;;;5003872;28;20041;-70
2022/02/19 10:17:21;;;;;;;4.05;1.08;;;;;;;;;;5009801;28;20034;-70
2022/02/19 10:19:48;;;;;;;1.77;0.68;;;;;;;;;;4995107;28;20029;-70
2022/02/19 10:22:16;;;;;;;3.60;0.95;;;;;;;;;;4995152;28;20038;-70
2022/02/19 10:24:46;;;;;;;2.60;0.95;;;;;;;;;;4993609;28;20030;-69
2022/02/19 10:27:12;;;;;;;6.05;1.35;;;;;;;;;;4994050;28;20506;-69
2022/02/19 10:29:48;;;;;;;5.82;1.23;;;;;;;;;;4995130;28;20034;-70
2022/02/19 10:32:15;;;;;;;4.55;0.80;;;;;;;;;;4994760;28;20078;-70
2022/02/19 10:34:56;;;;;;;3.78;0.70;;;;;;;;;;5008893;28;20030;-70
2022/02/19 10:37:25;;;;;;;5.57;1.25;;;;;;;;;;4994588;28;20052;-70
2022/02/19 10:39:52;;;;;;;3.78;0.85;;;;;;;;;;4993020;28;20022;-70
2022/02/19 10:42:18;;;;;;;3.85;1.00;;;;;;;;;;4994431;28;20034;-70
2022/02/19 10:44:46;;;;;;;4.07;0.85;;;;;;;;;;4993749;28;20110;-70
2022/02/19 10:47:22;;;;;;;4.47;1.23;;;;;;;;;;4994771;28;20027;-70
2022/02/19 10:50:04;;;;;;;5.13;0.98;;;;;;;;;;4994671;28;20049;-71
2022/02/19 10:52:30;;;;;;;3.80;1.02;;;;;;;;;;4994386;28;20029;-70
2022/02/19 10:55:10;;;;;;;4.28;1.25;;;;;;;;;;4993705;28;20034;-69
2022/02/19 10:57:37;;;;;;;7.85;1.33;;;;;;;;;;4994525;28;20027;-71
2022/02/19 11:00:10;;;;;;;2.58;0.90;;;;;;;;;;4994521;28;20023;-70
2022/02/19 11:02:37;;;;;;;3.38;1.45;;;;;;;;;;4994342;28;20587;-70
2022/02/19 11:05:04;;;;;;;6.05;1.55;;;;;;;;;;4993492;28;20045;-70
2022/02/19 11:07:30;;;;;;;6.93;0.88;;;;;;;;;;5010029;28;20026;-70
2022/02/19 11:09:56;;;;;;;4.78;0.88;;;;;;;;;;4995045;28;20057;-71
2022/02/19 11:12:23;;;;;;;4.38;1.10;;;;;;;;;;4994866;28;20045;-69
2022/02/19 11:14:50;;;;;;;2.88;0.80;;;;;;;;;;4994035;28;20069;-70
2022/02/19 11:17:17;;;;;;;5.38;0.90;;;;;;;;;;4995180;28;20045;-70
2022/02/19 11:19:42;;;;;;;2.38;0.60;;;;;;;;;;4994578;28;20026;-70
2022/02/19 11:22:10;;;;;;;2.85;0.57;;;;;;;;;;4994944;28;20022;-70
2022/02/19 11:24:37;;;;;;;5.78;1.35;;;;;;;;;;4994378;28;20042;-70
2022/02/19 11:27:03;;;;;;;6.00;0.98;;;;;;;;;;4994991;28;20384;-70
2022/02/19 11:29:30;;;;;;;5.32;1.30;;;;;;;;;;4995368;28;20022;-70
2022/02/19 11:31:57;;;;;;;4.97;0.95;;;;;;;;;;4995218;28;20392;-71
2022/02/19 11:34:24;;;;;;;4.97;1.42;;;;;;;;;;4994095;28;20022;-71
2022/02/19 11:36:51;;;;;;;5.60;1.38;;;;;;;;;;4994023;28;20030;-70
2022/02/19 11:39:17;;;;;;;3.78;0.80;;;;;;;;;;4992870;28;20503;-70
2022/02/19 11:41:45;;;;;;;5.32;1.08;;;;;;;;;;4994571;28;20026;-71
2022/02/19 11:44:14;;;;;;;7.15;1.42;;;;;;;;;;4993462;28;20038;-70
2022/02/19 11:46:40;;;;;;;4.43;0.90;;;;;;;;;;4994321;28;20038;-71
2022/02/19 11:49:23;;;;;;;4.75;1.02;;;;;;;;;;4993954;28;20030;-70
2022/02/19 11:52:04;;;;;;;2.92;1.20;;;;;;;;;;4993622;28;20022;-71
2022/02/19 11:54:31;;;;;;;6.82;1.85;;;;;;;;;;4993061;28;20097;-70
2022/02/19 11:56:58;;;;;;;5.60;1.23;;;;;;;;;;4993707;28;20081;-70
2022/02/19 11:59:40;;;;;;;4.28;1.05;;;;;;;;;;4993660;28;20089;-71
2022/02/19 12:02:20;;;;;;;4.50;1.25;;;;;;;;;;4994099;28;20104;-71
2022/02/19 12:05:08;;;;;;;3.17;0.90;;;;;;;;;;4993401;28;20377;-70
2022/02/19 12:07:55;;;;;;;5.00;1.10;;;;;;;;;;4994076;28;20030;-70
2022/02/19 12:10:21;;;;;;;8.57;1.45;;;;;;;;;;4993686;28;20027;-71
2022/02/19 12:13:04;;;;;;;5.68;1.27;;;;;;;;;;5009098;28;20030;-69
2022/02/19 12:15:30;;;;;;;3.45;1.10;;;;;;;;;;4995336;28;20052;-70
2022/02/19 12:17:56;;;;;;;2.80;0.80;;;;;;;;;;4995642;28;20085;-70
2022/02/19 12:20:23;;;;;;;6.85;1.10;;;;;;;;;;4994171;28;20098;-69
2022/02/19 12:22:51;;;;;;;5.63;1.98;;;;;;;;;;4992674;28;20121;-70
2022/02/19 12:25:17;;;;;;;5.50;1.30;;;;;;;;;;4993149;28;20026;-70
2022/02/19 12:27:44;;;;;;;5.60;1.48;;;;;;;;;;4993513;28;20542;-70
2022/02/19 12:30:17;;;;;;;1.90;0.93;;;;;;;;;;4993029;28;20092;-70
2022/02/19 12:32:46;;;;;;;5.47;1.33;;;;;;;;;;4993386;28;20022;-69
2022/02/19 12:35:13;;;;;;;7.50;1.58;;;;;;;;;;4992725;28;20109;-71
2022/02/19 12:37:39;;;;;;;6.50;0.95;;;;;;;;;;4992534;28;20476;-70
2022/02/19 12:40:05;;;;;;;6.22;1.15;;;;;;;;;;5005974;28;20022;-71
2022/02/19 12:42:32;;;;;;;6.00;0.90;;;;;;;;;;4992337;28;20022;-70
2022/02/19 12:45:17;;;;;;;3.65;0.73;;;;;;;;;;4991653;28;20027;-70
2022/02/19 12:47:43;;;;;;;3.65;1.17;;;;;;;;;;4992431;28;20030;-70
2022/02/19 12:50:10;;;;;;;4.45;0.90;;;;;;;;;;4991771;28;20034;-69
2022/02/19 12:52:37;;;;;;;3.65;0.73;;;;;;;;;;5007545;28;20397;-70
2022/02/19 12:55:07;;;;;;;4.75;0.68;;;;;;;;;;4991823;28;20034;-69
2022/02/19 12:57:33;;;;;;;3.80;0.95;;;;;;;;;;4992300;28;20022;-69
2022/02/19 13:00:05;;;;;;;2.03;1.00;;;;;;;;;;4992319;28;20029;-69
2022/02/19 13:02:30;;;;;;;;;;;;;;;;;;4992784;28;20109;-70
2022/02/19 13:05:02;;;;;;;4.72;1.20;;;;;;;;;;4991561;28;19959;-70
2022/02/19 13:07:28;;;;;;;;;;;;;;;;;;4992642;28;20022;-70
2022/02/19 13:09:55;;;;;;;3.47;0.88;;;;;;;;;;4992280;28;20399;-70
2022/02/19 13:12:29;;;;;;;5.50;0.90;;;;;;;;;;4992176;28;20026;-70
2022/02/19 13:14:56;;;;;;;5.35;1.35;;;;;;;;;;4991240;28;20113;-70
2022/02/19 13:17:23;;;;;;;4.20;1.15;;;;;;;;;;4992193;28;20143;-69
2022/02/19 13:19:49;;;;;;;7.82;1.30;;;;;;;;;;4991969;28;20026;-69
2022/02/19 13:22:27;;;;;;;5.22;0.90;;;;;;;;;;5007024;28;20403;-70
2022/02/19 13:24:55;;;;;;;3.70;0.70;;;;;;;;;;5006411;28;20027;-70
2022/02/19 13:27:26;;;;;;;6.72;1.27;;;;;;;;;;4992313;28;20388;-71
2022/02/19 13:29:56;;;;;;;5.63;1.23;;;;;;;;;;5007112;28;20077;-71
2022/02/19 13:32:22;;;;;;;4.10;1.03;;;;;;;;;;4992356;28;20022;-70
2022/02/19 13:34:49;;;;;;;5.90;1.45;;;;;;;;;;4991136;28;20098;-72
2022/02/19 13:37:15;;;;;;;4.40;1.13;;;;;;;;;;4992060;28;20387;-70
2022/02/19 13:39:42;;;;;;;8.10;1.27;;;;;;;;;;5006066;28;20454;-70
2022/02/19 13:42:08;;;;;;;3.25;1.30;;;;;;;;;;4991978;28;20552;-70
2022/02/19 13:44:48;;;;;;;5.50;0.98;;;;;;;;;;4991209;28;20030;-70
2022/02/19 13:47:14;;;;;;;6.15;1.13;;;;;;;;;;4991934;28;20034;-70
2022/02/19 13:49:44;;;;;;;6.82;1.30;;;;;;;;;;4991785;28;20076;-70
2022/02/19 13:52:25;;;;;;;4.93;1.20;;;;;;;;;;4991803;28;20105;-70
2022/02/19 13:54:52;;;;;;;4.57;0.80;;;;;;;;;;4991086;28;20034;-69
2022/02/19 13:57:22;;;;;;;5.65;1.77;;;;;;;;;;4991861;28;20435;-70
2022/02/19 14:00:21;;;;;;;4.80;1.02;;;;;;;;;;4992678;28;20069;-69
2022/02/19 14:02:58;;;;;;;5.22;1.15;;;;;;;;;;4972455;28;20077;-70
2022/02/19 14:05:24;;;;;;;5.13;1.23;;;;;;;;;;4995460;28;20388;-71
2022/02/19 14:07:54;;;;;;;3.65;0.80;;;;;;;;;;4995483;28;20037;-71
2022/02/19 14:10:20;;;;;;;6.32;0.93;;;;;;;;;;4995374;28;20037;-71
2022/02/19 14:12:46;;;;;;;7.43;1.67;;;;;;;;;;5009778;28;20026;-70
2022/02/19 14:15:17;;;;;;;4.68;1.10;;;;;;;;;;5010217;28;20035;-71
2022/02/19 14:17:44;;;;;;;3.42;1.02;;;;;;;;;;4995258;28;20022;-71
2022/02/19 14:20:12;;;;;;;3.15;0.98;;;;;;;;;;4995640;28;20027;-71
2022/02/19 14:22:41;;;;;;;3.38;1.35;;;;;;;;;;5009954;28;20488;-71
2022/02/19 14:25:08;;;;;;;3.83;1.20;;;;;;;;;;4994514;28;20395;-71
2022/02/19 14:27:47;;;;;;;5.68;1.10;;;;;;;;;;5009954;28;20026;-71
2022/02/19 14:30:13;;;;;;;4.07;1.33;;;;;;;;;;4994465;28;20026;-71
2022/02/19 14:32:39;;;;;;;6.55;1.33;;;;;;;;;;5009349;28;20077;-69
2022/02/19 14:35:05;;;;;;;6.45;1.40;;;;;;;;;;4993785;28;20477;-70
2022/02/19 14:37:31;;;;;;;5.10;1.05;;;;;;;;;;4994546;28;20057;-70
2022/02/19 14:39:57;;;;;;;3.90;1.20;;;;;;;;;;5007990;28;20030;-70
2022/02/19 14:42:23;;;;;;;6.35;1.02;;;;;;;;;;4994359;28;20034;-70
2022/02/19 14:44:49;;;;;;;4.68;1.35;;;;;;;;;;4993999;28;20027;-71
2022/02/19 14:47:15;;;;;;;3.70;1.00;;;;;;;;;;4994470;28;20031;-71
2022/02/19 14:49:42;;;;;;;2.20;0.70;;;;;;;;;;4994802;28;20034;-71
2022/02/19 14:52:08;;;;;;;2.20;1.00;;;;;;;;;;4994441;28;20101;-71
2022/02/19 14:54:34;;;;;;;3.17;1.05;;;;;;;;;;5011868;23;20038;-73